Time;durP1;ratioP1;P1;durP2;ratioP2;P2;SDS_P1;SDS_P2;PMS_P1;PMS_P2;Temp;Humidity;BMP_temperature;BMP_pressure;BME280_temperature;BME280_humidity;BME280_pressure;Samples;Min_cycle;Max_cycle;Signal;HPM_P1;HPM_P2
2021/07/27 00:01:40;;;;;;;4.80;3.90;;;16.40;99.90;;;;;;5111927;28;20452;-77
2021/07/27 00:04:07;;;;;;;4.67;3.87;;;16.40;99.90;;;;;;5111250;28;20453;-77
2021/07/27 00:06:33;;;;;;;6.13;4.40;;;16.40;99.90;;;;;;5111556;28;20464;-77
2021/07/27 00:09:00;;;;;;;7.07;4.60;;;16.40;99.90;;;;;;5111384;28;20907;-77
2021/07/27 00:11:27;;;;;;;5.37;4.07;;;16.40;99.90;;;;;;5111179;28;20464;-77
2021/07/27 00:13:53;;;;;;;4.23;3.70;;;16.40;99.90;;;;;;5111511;28;20477;-77
2021/07/27 00:16:20;;;;;;;4.10;3.70;;;16.30;99.90;;;;;;5111424;28;20483;-77
2021/07/27 00:18:48;;;;;;;5.40;4.13;;;16.30;99.90;;;;;;5111384;28;20468;-77
2021/07/27 00:21:15;;;;;;;7.20;4.13;;;16.30;99.90;;;;;;5110892;28;20456;-77
2021/07/27 00:23:41;;;;;;;4.10;3.50;;;16.40;99.90;;;;;;5111491;28;20471;-77
2021/07/27 00:26:13;;;;;;;5.70;4.40;;;16.30;99.90;;;;;;5111241;28;20488;-77
2021/07/27 00:28:40;;;;;;;4.83;4.30;;;16.30;99.90;;;;;;5111282;28;20879;-77
2021/07/27 00:31:07;;;;;;;4.10;3.70;;;16.30;99.90;;;;;;5110890;28;20460;-77
2021/07/27 00:33:34;;;;;;;6.53;4.53;;;16.30;99.90;;;;;;5110408;28;20484;-77
2021/07/27 00:36:05;;;;;;;4.63;4.13;;;16.30;99.90;;;;;;5111482;28;20488;-77
2021/07/27 00:38:32;;;;;;;4.57;4.20;;;16.30;99.90;;;;;;5111316;28;20461;-76
2021/07/27 00:40:59;;;;;;;6.00;4.77;;;16.30;99.90;;;;;;5110818;28;20981;-77
2021/07/27 00:43:26;;;;;;;7.70;4.67;;;16.20;99.90;;;;;;5110706;28;20970;-77
2021/07/27 00:45:52;;;;;;;6.23;4.63;;;16.30;99.90;;;;;;5110013;27;20523;-77
2021/07/27 00:48:19;;;;;;;4.70;4.20;;;16.20;99.90;;;;;;5110818;28;20469;-77
2021/07/27 00:50:46;;;;;;;6.33;4.50;;;16.20;99.90;;;;;;5110053;28;20464;-77
2021/07/27 00:53:15;;;;;;;5.00;4.20;;;16.20;99.90;;;;;;5110541;28;20472;-77
2021/07/27 00:55:42;;;;;;;6.20;4.33;;;16.30;99.90;;;;;;5110639;27;20512;-77
2021/07/27 00:58:09;;;;;;;4.90;4.40;;;16.30;99.90;;;;;;5111025;28;20461;-77
2021/07/27 01:00:35;;;;;;;7.20;4.23;;;16.20;99.90;;;;;;5110186;28;20460;-77
2021/07/27 01:03:02;;;;;;;5.47;4.97;;;16.30;99.90;;;;;;5110171;28;20452;-77
2021/07/27 01:05:29;;;;;;;5.17;4.67;;;16.30;99.90;;;;;;5110456;28;20495;-77
2021/07/27 01:07:57;;;;;;;4.93;4.27;;;16.20;99.90;;;;;;5110533;28;20493;-77
2021/07/27 01:10:25;;;;;;;5.67;4.70;;;16.20;99.90;;;;;;5109534;28;20492;-77
2021/07/27 01:12:52;;;;;;;5.40;4.57;;;16.20;99.90;;;;;;5110235;28;20499;-77
2021/07/27 01:15:19;;;;;;;5.77;4.20;;;16.20;99.90;;;;;;5110443;28;20984;-77
2021/07/27 01:17:46;;;;;;;6.27;4.47;;;16.10;99.90;;;;;;5110636;28;20460;-77
2021/07/27 01:20:22;;;;;;;6.47;4.93;;;16.10;99.90;;;;;;5109478;28;20963;-77
2021/07/27 01:39:34;;;;;;;4.80;3.80;;;15.80;99.90;;;;;;5109364;28;20966;-77
2021/07/27 01:42:10;;;;;;;4.70;4.23;;;15.80;99.90;;;;;;5109818;28;20456;-77
2021/07/27 01:44:43;;;;;;;5.47;4.40;;;15.80;99.90;;;;;;5109551;28;20488;-77
2021/07/27 01:47:11;;;;;;;6.20;4.47;;;15.80;99.90;;;;;;5109796;28;20485;-77
2021/07/27 01:49:38;;;;;;;5.70;4.70;;;15.90;99.90;;;;;;5108879;28;20461;-77
2021/07/27 01:52:09;;;;;;;5.27;4.27;;;15.90;99.90;;;;;;5109919;28;20464;-77
2021/07/27 01:54:55;;;;;;;6.93;4.40;;;15.90;99.90;;;;;;5108438;28;20492;-77
2021/07/27 01:57:24;;;;;;;5.70;4.90;;;15.90;99.90;;;;;;5109197;28;20463;-77
2021/07/27 02:00:08;;;;;;;6.87;4.20;;;15.90;99.90;;;;;;5108875;28;20486;-77
2021/07/27 02:02:35;;;;;;;6.83;4.60;;;15.90;99.90;;;;;;5109117;28;20460;-77
2021/07/27 02:05:01;;;;;;;7.47;4.87;;;15.90;99.90;;;;;;5109479;28;20477;-77
2021/07/27 02:07:28;;;;;;;5.50;4.70;;;15.90;99.90;;;;;;5109071;28;20480;-77
2021/07/27 02:10:02;;;;;;;6.47;4.57;;;15.80;99.90;;;;;;5108985;28;20461;-77
2021/07/27 02:12:36;;;;;;;5.53;5.03;;;15.80;99.90;;;;;;5109031;28;20468;-77
2021/07/27 02:15:17;;;;;;;5.60;5.10;;;15.80;99.90;;;;;;5109519;28;20476;-77
2021/07/27 02:17:44;;;;;;;8.07;4.77;;;15.90;99.90;;;;;;5109403;28;21161;-77
2021/07/27 02:20:12;;;;;;;6.97;4.50;;;15.90;99.90;;;;;;5108818;28;20517;-77
2021/07/27 02:22:38;;;;;;;7.90;5.30;;;15.90;99.90;;;;;;5109177;28;20461;-77
2021/07/27 02:25:08;;;;;;;5.40;4.67;;;15.90;99.90;;;;;;5109429;28;20476;-76
2021/07/27 02:27:35;;;;;;;9.00;4.60;;;15.90;99.90;;;;;;5109089;28;20944;-76
2021/07/27 02:30:03;;;;;;;6.27;5.43;;;15.90;99.90;;;;;;5108621;28;20469;-77
2021/07/27 02:32:30;;;;;;;6.03;4.83;;;15.90;99.90;;;;;;5108692;28;20987;-77
2021/07/27 02:34:56;;;;;;;6.73;5.20;;;15.90;99.90;;;;;;5109234;28;20480;-77
2021/07/27 02:37:23;;;;;;;5.60;5.07;;;15.90;99.90;;;;;;5108774;28;20483;-77
2021/07/27 02:39:50;;;;;;;6.27;4.80;;;15.90;99.90;;;;;;5108636;28;20463;-77
2021/07/27 02:42:18;;;;;;;6.77;5.00;;;15.90;99.90;;;;;;5108640;28;20832;-77
2021/07/27 02:44:44;;;;;;;5.47;4.93;;;15.90;99.90;;;;;;5109074;28;20483;-77
2021/07/27 02:47:11;;;;;;;6.23;5.40;;;15.90;99.90;;;;;;5108997;28;20548;-77
2021/07/27 02:49:38;;;;;;;5.43;4.73;;;15.90;99.90;;;;;;5108296;28;20452;-77
2021/07/27 02:52:05;;;;;;;6.27;5.70;;;15.90;99.90;;;;;;5108752;28;20955;-77
2021/07/27 02:54:32;;;;;;;6.63;5.27;;;15.90;99.90;;;;;;5108346;28;20484;-77
2021/07/27 02:56:59;;;;;;;5.53;4.93;;;15.90;99.90;;;;;;5109165;28;20463;-77
2021/07/27 02:59:27;;;;;;;5.30;4.80;;;15.90;99.90;;;;;;5107955;28;20456;-77
2021/07/27 03:01:54;;;;;;;5.53;5.03;;;15.90;99.90;;;;;;5108733;28;20472;-77
2021/07/27 03:04:22;;;;;;;7.00;4.77;;;15.90;99.90;;;;;;5108638;28;20955;-77
2021/07/27 03:06:48;;;;;;;6.60;5.30;;;15.90;99.90;;;;;;5108426;28;20823;-77
2021/07/27 03:09:16;;;;;;;6.53;5.50;;;15.90;99.90;;;;;;5110419;28;20461;-77
2021/07/27 03:11:44;;;;;;;6.77;4.80;;;15.90;99.90;;;;;;5112387;28;20480;-77
2021/07/27 03:14:10;;;;;;;6.07;5.03;;;15.90;99.90;;;;;;5112593;28;20845;-77
2021/07/27 03:16:38;;;;;;;6.77;5.20;;;15.90;99.90;;;;;;5112345;28;20467;-77
2021/07/27 03:19:05;;;;;;;6.13;5.47;;;15.90;99.90;;;;;;5112258;28;20471;-77
2021/07/27 03:21:32;;;;;;;6.00;4.70;;;15.90;99.90;;;;;;5112148;28;20940;-77
2021/07/27 03:23:59;;;;;;;5.90;5.30;;;15.90;99.90;;;;;;5111901;28;20462;-76
2021/07/27 03:26:26;;;;;;;5.00;4.50;;;15.90;99.90;;;;;;5112401;28;20488;-77
2021/07/27 03:28:53;;;;;;;6.97;5.30;;;15.90;99.90;;;;;;5112032;28;20464;-76
2021/07/27 03:31:20;;;;;;;6.40;5.80;;;15.90;99.90;;;;;;5111884;28;20460;-76
2021/07/27 03:33:48;;;;;;;5.90;5.00;;;15.90;99.90;;;;;;5110221;28;20472;-76
2021/07/27 03:36:15;;;;;;;5.97;5.47;;;15.90;99.90;;;;;;5111134;28;20491;-77
2021/07/27 03:38:42;;;;;;;5.83;5.03;;;15.90;99.90;;;;;;5110305;28;20459;-77
2021/07/27 03:41:10;;;;;;;6.63;4.97;;;15.80;99.90;;;;;;5111301;28;20467;-76
2021/07/27 03:43:39;;;;;;;6.03;5.20;;;15.80;99.90;;;;;;5113021;28;20464;-78
2021/07/27 03:46:06;;;;;;;5.83;5.20;;;15.80;99.90;;;;;;5159905;22;20488;-71
2021/07/27 03:48:33;;;;;;;6.80;5.57;;;15.80;99.90;;;;;;5028557;28;20986;-71
2021/07/27 03:51:01;;;;;;;6.97;4.80;;;15.80;99.90;;;;;;5026238;28;20460;-71
2021/07/27 03:53:28;;;;;;;5.63;5.13;;;15.80;99.90;;;;;;5022361;28;20484;-70
2021/07/27 03:55:55;;;;;;;5.80;5.20;;;15.80;99.90;;;;;;5018083;28;20847;-70
2021/07/27 03:58:22;;;;;;;8.80;5.43;;;15.80;99.90;;;;;;5029242;28;20456;-69
2021/07/27 04:00:48;;;;;;;6.83;5.37;;;15.80;99.90;;;;;;5029173;28;20456;-69
2021/07/27 04:03:15;;;;;;;6.93;5.03;;;15.80;99.90;;;;;;5031046;28;20451;-69
2021/07/27 04:05:43;;;;;;;10.07;5.17;;;15.80;99.90;;;;;;5030957;28;20477;-69
2021/07/27 04:08:11;;;;;;;6.27;5.23;;;15.80;99.90;;;;;;5031285;28;20468;-69
2021/07/27 04:10:38;;;;;;;6.03;5.20;;;15.80;99.90;;;;;;5030381;28;20483;-69
2021/07/27 04:13:05;;;;;;;7.93;5.50;;;15.80;99.90;;;;;;5029141;28;20488;-69
2021/07/27 04:15:42;;;;;;;6.13;5.50;;;15.80;99.90;;;;;;5028091;28;20575;-70
2021/07/27 04:18:09;;;;;;;5.73;4.80;;;15.80;99.90;;;;;;5013174;28;20638;-69
2021/07/27 04:20:35;;;;;;;6.47;4.93;;;15.80;99.90;;;;;;5010020;28;20476;-69
2021/07/27 04:23:02;;;;;;;6.90;5.27;;;15.70;99.90;;;;;;5007906;28;20545;-70
2021/07/27 04:25:31;;;;;;;6.20;5.23;;;15.70;99.90;;;;;;5007775;28;21019;-69
2021/07/27 04:27:58;;;;;;;6.43;5.23;;;15.70;99.90;;;;;;5008403;28;20524;-70
2021/07/27 04:30:25;;;;;;;5.90;4.83;;;15.70;99.90;;;;;;5008586;28;20489;-70
2021/07/27 04:32:51;;;;;;;5.50;4.93;;;15.70;99.90;;;;;;5009481;28;20469;-70
2021/07/27 04:35:18;;;;;;;7.17;5.67;;;15.70;99.90;;;;;;5009152;28;20493;-70
2021/07/27 04:37:45;;;;;;;5.57;4.90;;;15.70;99.90;;;;;;5010913;28;20831;-70
2021/07/27 04:40:12;;;;;;;8.43;5.30;;;15.70;99.90;;;;;;5010530;28;20465;-70
2021/07/27 04:42:41;;;;;;;5.87;4.93;;;15.60;99.90;;;;;;5010274;28;20468;-70
2021/07/27 04:45:09;;;;;;;5.63;4.90;;;15.60;99.90;;;;;;5010736;28;21076;-69
2021/07/27 04:47:35;;;;;;;6.77;4.87;;;15.60;99.90;;;;;;5010190;28;20830;-69
2021/07/27 04:50:02;;;;;;;5.47;4.70;;;15.60;99.90;;;;;;5009999;28;20472;-70
2021/07/27 04:52:30;;;;;;;6.20;5.13;;;15.60;99.90;;;;;;5009701;28;20831;-69
2021/07/27 04:54:57;;;;;;;8.70;5.60;;;15.60;99.90;;;;;;5013036;28;21086;-70
2021/07/27 04:57:24;;;;;;;5.43;4.90;;;15.60;99.90;;;;;;5019283;28;20462;-70
2021/07/27 04:59:52;;;;;;;5.87;5.27;;;15.70;99.90;;;;;;5013367;28;20456;-70
2021/07/27 05:02:19;;;;;;;9.00;5.33;;;15.70;99.90;;;;;;5019345;28;20457;-70
2021/07/27 05:04:46;;;;;;;6.50;4.93;;;15.70;99.90;;;;;;5024819;28;20484;-70
2021/07/27 05:07:13;;;;;;;6.00;5.30;;;15.80;99.90;;;;;;5026575;28;20468;-69
2021/07/27 05:09:39;;;;;;;5.20;4.77;;;15.80;99.90;;;;;;5029309;28;20464;-70
2021/07/27 05:12:07;;;;;;;6.10;4.80;;;15.80;99.90;;;;;;5029690;28;20460;-69
2021/07/27 05:14:34;;;;;;;5.73;5.13;;;15.80;99.90;;;;;;5029698;28;20499;-70
2021/07/27 05:17:09;;;;;;;5.53;5.03;;;15.80;99.90;;;;;;5029483;28;20472;-68
2021/07/27 05:19:35;;;;;;;6.40;5.80;;;15.80;99.90;;;;;;5028371;28;20460;-69
2021/07/27 05:22:02;;;;;;;8.30;6.17;;;15.90;99.90;;;;;;5008100;28;20468;-69
2021/07/27 05:24:29;;;;;;;6.80;5.27;;;15.90;99.90;;;;;;5008159;28;21036;-70
2021/07/27 05:27:04;;;;;;;6.70;6.00;;;15.90;99.90;;;;;;5006898;28;20969;-70
2021/07/27 05:29:31;;;;;;;7.20;5.20;;;16.00;99.90;;;;;;5018794;28;20461;-69
2021/07/27 05:31:58;;;;;;;8.03;5.40;;;16.00;99.90;;;;;;5024688;28;20464;-69
2021/07/27 05:34:26;;;;;;;6.97;5.80;;;16.00;99.90;;;;;;5014582;28;21023;-70
2021/07/27 05:36:52;;;;;;;6.13;5.60;;;16.00;99.90;;;;;;5009959;28;20465;-69
2021/07/27 05:39:19;;;;;;;6.27;5.67;;;16.10;99.90;;;;;;5008841;28;20461;-70
2021/07/27 05:41:46;;;;;;;8.37;5.53;;;16.10;99.90;;;;;;5009837;28;20465;-69
2021/07/27 05:44:12;;;;;;;6.73;6.03;;;16.10;99.90;;;;;;5009320;28;20967;-69
2021/07/27 05:46:39;;;;;;;7.80;5.40;;;16.10;99.90;;;;;;5009271;28;20875;-70
2021/07/27 05:49:09;;;;;;;5.90;5.20;;;16.10;99.90;;;;;;5009100;28;20967;-69
2021/07/27 05:51:37;;;;;;;6.47;5.60;;;16.20;99.90;;;;;;5009481;28;20465;-70
2021/07/27 05:54:04;;;;;;;5.33;4.70;;;16.20;99.90;;;;;;5009076;28;21004;-70
2021/07/27 05:56:32;;;;;;;6.20;5.30;;;16.20;99.90;;;;;;5009269;28;20965;-70
2021/07/27 05:58:59;;;;;;;9.30;5.70;;;16.30;99.90;;;;;;5009021;28;20988;-70
2021/07/27 06:01:25;;;;;;;6.40;5.80;;;16.30;99.90;;;;;;5009000;28;20816;-70
2021/07/27 06:03:52;;;;;;;6.97;5.60;;;16.40;99.90;;;;;;5009030;28;20882;-70
2021/07/27 06:06:19;;;;;;;7.03;5.20;;;16.50;99.90;;;;;;5009196;28;20488;-70
2021/07/27 06:08:47;;;;;;;6.00;5.40;;;16.60;99.90;;;;;;5008983;28;20473;-71
2021/07/27 06:11:14;;;;;;;5.73;5.17;;;16.70;99.90;;;;;;5008459;28;20469;-71
2021/07/27 06:13:41;;;;;;;6.60;5.33;;;16.80;99.90;;;;;;5009373;28;20489;-70
2021/07/27 06:16:08;;;;;;;6.63;5.60;;;16.90;99.90;;;;;;5008852;28;20480;-70
2021/07/27 06:18:35;;;;;;;6.70;5.93;;;17.00;99.90;;;;;;5009308;28;20472;-70
2021/07/27 06:21:02;;;;;;;6.00;5.50;;;17.20;99.90;;;;;;5007829;28;20484;-70
2021/07/27 06:23:29;;;;;;;7.10;5.30;;;17.30;99.90;;;;;;5008966;28;20957;-70
2021/07/27 06:25:57;;;;;;;5.33;4.90;;;17.30;99.90;;;;;;5008650;28;20477;-70
2021/07/27 06:28:23;;;;;;;6.23;5.00;;;17.30;99.90;;;;;;5007351;28;21062;-68
2021/07/27 06:30:50;;;;;;;6.13;5.57;;;17.40;99.90;;;;;;5020433;28;20468;-69
2021/07/27 06:33:17;;;;;;;5.63;5.10;;;17.40;99.90;;;;;;5026064;28;20456;-70
2021/07/27 06:35:43;;;;;;;8.20;5.40;;;17.50;99.90;;;;;;5027077;28;20602;-70
2021/07/27 06:38:11;;;;;;;5.97;4.90;;;17.60;99.90;;;;;;5026053;28;20471;-70
2021/07/27 06:40:38;;;;;;;6.30;4.90;;;17.60;99.90;;;;;;5026458;28;20565;-70
2021/07/27 06:43:07;;;;;;;5.97;5.40;;;17.60;99.90;;;;;;5026794;28;20821;-70
2021/07/27 06:45:34;;;;;;;7.00;5.40;;;17.60;99.90;;;;;;5029716;28;20590;-69
2021/07/27 06:48:02;;;;;;;6.10;5.50;;;17.70;99.90;;;;;;5030721;28;20467;-71
2021/07/27 06:50:29;;;;;;;5.87;5.37;;;17.70;99.90;;;;;;5029362;28;20459;-71
2021/07/27 06:52:57;;;;;;;6.03;4.67;;;17.70;99.90;;;;;;5030315;28;20456;-71
2021/07/27 06:55:24;;;;;;;6.17;5.57;;;17.80;99.90;;;;;;5030372;28;20499;-68
2021/07/27 06:57:51;;;;;;;6.47;5.27;;;17.80;99.90;;;;;;5030448;28;20464;-71
2021/07/27 07:00:21;;;;;;;6.00;5.43;;;17.90;99.90;;;;;;5028844;28;20472;-70
2021/07/27 07:02:49;;;;;;;6.00;4.87;;;17.90;99.90;;;;;;5029909;28;20524;-69
2021/07/27 07:05:16;;;;;;;7.07;5.23;;;17.90;99.90;;;;;;5025808;28;20837;-68
2021/07/27 07:07:43;;;;;;;5.63;5.10;;;18.00;99.90;;;;;;5014037;28;20468;-69
2021/07/27 07:10:12;;;;;;;5.60;5.10;;;18.10;99.90;;;;;;5017799;28;20480;-71
2021/07/27 07:12:42;;;;;;;6.27;5.50;;;18.20;99.90;;;;;;5011556;28;20457;-69
2021/07/27 07:15:10;;;;;;;5.43;4.93;;;18.30;99.90;;;;;;5009795;28;20512;-69
2021/07/27 07:17:39;;;;;;;6.40;5.23;;;18.40;99.90;;;;;;5011433;28;20461;-69
2021/07/27 07:20:08;;;;;;;6.10;5.50;;;18.40;99.90;;;;;;5010562;28;20465;-71
2021/07/27 07:22:35;;;;;;;6.43;4.70;;;18.50;99.90;;;;;;5010124;28;20473;-71
2021/07/27 07:25:03;;;;;;;5.80;4.50;;;18.50;99.90;;;;;;5022305;28;20834;-71
2021/07/27 07:27:29;;;;;;;6.03;5.50;;;18.60;99.90;;;;;;5030372;28;20464;-70
2021/07/27 07:29:57;;;;;;;6.50;5.80;;;18.60;99.90;;;;;;5029475;28;20470;-70
2021/07/27 07:32:24;;;;;;;5.47;4.97;;;18.70;99.90;;;;;;5030724;28;20492;-70
2021/07/27 07:34:52;;;;;;;5.80;5.07;;;18.70;99.90;;;;;;5029999;28;20488;-70
2021/07/27 07:37:19;;;;;;;6.03;5.30;;;18.90;99.90;;;;;;5029724;28;20464;-71
2021/07/27 07:39:45;;;;;;;8.77;5.30;;;18.90;99.90;;;;;;5029601;28;20468;-70
2021/07/27 07:42:12;;;;;;;5.57;5.07;;;19.00;99.90;;;;;;5029619;28;20959;-71
2021/07/27 07:44:39;;;;;;;7.10;5.03;;;19.00;99.90;;;;;;5030184;28;20488;-70
2021/07/27 07:47:08;;;;;;;5.17;4.43;;;19.00;99.90;;;;;;5029330;28;20476;-70
2021/07/27 07:49:35;;;;;;;5.60;5.10;;;19.10;99.90;;;;;;5029800;28;20469;-70
2021/07/27 07:52:04;;;;;;;6.00;4.93;;;19.20;99.90;;;;;;5029589;28;20964;-71
2021/07/27 07:54:33;;;;;;;5.53;5.03;;;19.20;99.90;;;;;;5029221;28;20495;-71
2021/07/27 07:56:59;;;;;;;5.57;5.07;;;19.30;99.90;;;;;;5029984;28;20558;-71
2021/07/27 07:59:26;;;;;;;5.90;5.40;;;19.40;99.90;;;;;;5028235;28;20479;-71
2021/07/27 08:01:56;;;;;;;6.27;5.67;;;19.50;99.90;;;;;;5029985;28;21005;-71
2021/07/27 08:04:24;;;;;;;6.37;5.23;;;19.60;99.90;;;;;;5029920;28;20571;-71
2021/07/27 08:06:51;;;;;;;6.40;5.80;;;19.70;99.90;;;;;;5028123;28;20460;-71
2021/07/27 08:09:19;;;;;;;8.07;5.60;;;19.70;99.90;;;;;;5028925;28;20465;-71
2021/07/27 08:11:46;;;;;;;6.20;5.60;;;19.80;99.90;;;;;;5029704;28;20471;-71
2021/07/27 08:14:15;;;;;;;6.00;5.40;;;19.90;99.90;;;;;;5028231;28;20952;-71
2021/07/27 08:16:44;;;;;;;7.60;5.80;;;19.90;99.90;;;;;;5029944;28;20826;-71
2021/07/27 08:19:14;;;;;;;5.23;4.83;;;20.00;99.90;;;;;;5028627;28;20475;-70
2021/07/27 08:21:41;;;;;;;5.90;5.40;;;20.00;99.90;;;;;;5029268;28;20900;-71
2021/07/27 08:24:08;;;;;;;6.00;5.40;;;20.00;99.90;;;;;;5028818;28;20967;-71
2021/07/27 08:26:36;;;;;;;5.50;5.00;;;20.00;99.90;;;;;;5029145;28;20463;-71
2021/07/27 08:29:02;;;;;;;5.30;4.80;;;20.10;99.90;;;;;;5028818;28;20456;-71
2021/07/27 08:31:29;;;;;;;5.77;5.27;;;20.10;99.90;;;;;;5028280;28;21065;-71
2021/07/27 08:33:56;;;;;;;5.93;5.43;;;20.20;99.90;;;;;;5029130;28;20470;-70
2021/07/27 08:36:23;;;;;;;6.00;5.40;;;20.20;99.90;;;;;;5028484;28;20495;-70
2021/07/27 08:38:49;;;;;;;6.03;5.07;;;20.30;99.90;;;;;;5028924;28;20471;-70
2021/07/27 08:41:18;;;;;;;6.40;5.73;;;20.30;99.90;;;;;;5028928;28;20471;-70
2021/07/27 08:43:46;;;;;;;6.40;5.80;;;20.40;99.90;;;;;;5028143;28;20483;-70
2021/07/27 08:46:16;;;;;;;9.17;5.90;;;20.40;99.90;;;;;;5028800;28;20491;-70
2021/07/27 08:48:43;;;;;;;6.30;5.70;;;20.40;99.90;;;;;;5029183;28;20755;-70
2021/07/27 08:51:10;;;;;;;5.73;5.10;;;20.50;99.90;;;;;;5027269;28;20551;-70
2021/07/27 08:53:37;;;;;;;6.17;5.07;;;20.50;99.90;;;;;;5029029;28;20468;-71
2021/07/27 08:56:04;;;;;;;6.70;5.13;;;20.50;99.90;;;;;;5028066;28;21024;-70
2021/07/27 08:58:30;;;;;;;6.70;5.57;;;20.60;99.90;;;;;;5028796;28;20539;-70
2021/07/27 09:00:58;;;;;;;6.03;5.43;;;20.70;99.90;;;;;;5028338;28;20472;-70
2021/07/27 09:03:25;;;;;;;6.50;5.67;;;20.80;99.90;;;;;;5028022;28;20951;-70
2021/07/27 09:06:04;;;;;;;5.83;5.33;;;20.90;99.90;;;;;;5027917;28;20552;-70
2021/07/27 09:08:31;;;;;;;6.27;5.67;;;20.90;99.90;;;;;;5028584;28;20496;-70
2021/07/27 09:11:00;;;;;;;8.30;6.70;;;21.00;99.90;;;;;;5027966;28;20464;-70
2021/07/27 09:13:33;;;;;;;6.10;5.43;;;21.00;99.90;;;;;;5028308;28;21102;-71
2021/07/27 09:16:01;;;;;;;5.33;4.83;;;21.10;99.90;;;;;;5028021;28;20488;-70
2021/07/27 09:18:30;;;;;;;6.20;5.53;;;21.30;99.90;;;;;;5028718;28;20822;-70
2021/07/27 09:20:58;;;;;;;5.97;5.30;;;21.30;99.90;;;;;;5015520;28;20829;-70
2021/07/27 09:23:27;;;;;;;6.20;5.60;;;21.40;99.90;;;;;;5027040;28;20971;-70
2021/07/27 09:25:55;;;;;;;5.73;5.20;;;21.50;99.90;;;;;;5027747;28;20530;-70
2021/07/27 09:28:23;;;;;;;5.63;5.13;;;21.50;99.90;;;;;;5026542;28;20971;-72
2021/07/27 09:30:56;;;;;;;7.10;5.20;;;21.60;99.90;;;;;;5026970;28;20467;-72
2021/07/27 09:33:29;;;;;;;5.30;4.90;;;21.70;99.90;;;;;;5026403;28;20469;-70
2021/07/27 09:35:55;;;;;;;6.37;5.43;;;21.80;99.90;;;;;;5026665;28;20492;-72
2021/07/27 09:38:22;;;;;;;7.63;5.50;;;21.90;99.90;;;;;;5027078;28;20958;-72
2021/07/27 09:40:52;;;;;;;5.33;4.83;;;22.00;99.90;;;;;;5024980;28;20472;-70
2021/07/27 09:43:21;;;;;;;5.60;5.00;;;22.10;99.90;;;;;;5026429;28;20457;-73
2021/07/27 09:45:49;;;;;;;4.93;4.53;;;22.10;99.90;;;;;;5027267;28;20492;-70
2021/07/27 09:48:17;;;;;;;5.40;4.90;;;22.20;99.90;;;;;;5026545;28;20472;-71
2021/07/27 09:50:46;;;;;;;6.00;5.40;;;22.30;99.90;;;;;;5026230;28;20487;-70
2021/07/27 09:53:12;;;;;;;5.60;5.10;;;22.30;99.90;;;;;;5026246;28;20496;-70
2021/07/27 09:55:40;;;;;;;5.63;5.13;;;22.40;99.90;;;;;;5026917;28;20575;-72
2021/07/27 09:58:07;;;;;;;6.20;5.20;;;22.50;99.90;;;;;;5026830;28;20472;-72
2021/07/27 10:00:37;;;;;;;6.03;5.20;;;22.60;99.90;;;;;;5026518;28;20963;-72
2021/07/27 10:03:06;;;;;;;5.67;5.17;;;22.70;99.90;;;;;;5026752;28;20463;-72
2021/07/27 10:05:34;;;;;;;5.70;5.20;;;22.80;99.90;;;;;;5026565;28;20516;-72
2021/07/27 10:08:02;;;;;;;5.53;5.03;;;22.90;99.90;;;;;;5026839;28;20471;-72
2021/07/27 10:10:37;;;;;;;5.90;5.33;;;23.00;99.90;;;;;;5026560;28;20462;-72
2021/07/27 10:13:08;;;;;;;5.40;4.90;;;23.10;99.90;;;;;;5025515;28;20464;-72
2021/07/27 10:15:40;;;;;;;4.73;4.33;;;23.10;99.90;;;;;;5026901;28;20515;-72
2021/07/27 10:18:07;;;;;;;4.87;4.47;;;23.00;99.90;;;;;;5026020;28;20467;-72
2021/07/27 10:20:33;;;;;;;5.00;4.53;;;22.90;99.90;;;;;;5025340;28;20491;-72
2021/07/27 10:23:12;;;;;;;5.30;4.90;;;22.80;99.90;;;;;;5025343;28;20503;-71
2021/07/27 10:25:39;;;;;;;5.20;4.77;;;22.60;99.90;;;;;;5026200;28;20480;-72
2021/07/27 10:28:05;;;;;;;5.60;5.10;;;22.60;99.90;;;;;;5025873;28;20472;-72
2021/07/27 10:30:33;;;;;;;4.97;4.57;;;22.60;99.90;;;;;;5026015;28;20822;-71
2021/07/27 10:33:02;;;;;;;5.17;4.57;;;22.70;99.90;;;;;;5025755;28;20496;-71
2021/07/27 10:35:30;;;;;;;5.17;4.77;;;22.80;99.90;;;;;;5026171;28;20499;-71
2021/07/27 10:38:09;;;;;;;5.27;4.77;;;22.70;99.90;;;;;;5026083;28;20511;-71
2021/07/27 10:40:36;;;;;;;5.30;4.90;;;22.70;99.90;;;;;;5025897;28;20963;-71
2021/07/27 10:43:06;;;;;;;4.80;4.40;;;22.60;99.90;;;;;;5026117;28;20460;-71
2021/07/27 10:45:33;;;;;;;5.00;4.50;;;22.70;99.90;;;;;;5025698;28;20980;-71
2021/07/27 10:48:00;;;;;;;5.30;4.80;;;22.80;99.90;;;;;;5026288;28;20473;-71
2021/07/27 10:50:28;;;;;;;4.57;4.17;;;23.10;99.90;;;;;;5025461;28;20475;-71
2021/07/27 10:53:04;;;;;;;4.90;4.50;;;23.10;99.90;;;;;;5026025;28;20475;-71
2021/07/27 10:55:33;;;;;;;4.07;3.67;;;23.10;99.90;;;;;;5026333;28;20483;-71
2021/07/27 10:58:02;;;;;;;5.00;4.60;;;23.10;99.90;;;;;;5026413;28;20844;-71
2021/07/27 11:00:32;;;;;;;4.90;4.43;;;23.20;99.90;;;;;;5024228;28;20471;-71
2021/07/27 11:03:00;;;;;;;4.77;4.30;;;23.30;99.90;;;;;;5021140;28;20461;-71
2021/07/27 11:05:27;;;;;;;5.50;4.30;;;23.40;99.90;;;;;;5022009;28;20476;-71
2021/07/27 11:07:54;;;;;;;6.30;4.70;;;23.50;99.90;;;;;;5023100;28;20464;-71
2021/07/27 11:10:22;;;;;;;4.63;4.23;;;23.60;99.90;;;;;;5020644;28;20460;-71
2021/07/27 11:12:50;;;;;;;6.33;5.10;;;23.80;99.90;;;;;;5022184;28;20474;-71
2021/07/27 11:15:19;;;;;;;4.67;4.27;;;23.90;99.90;;;;;;5022475;28;20862;-71
2021/07/27 11:17:47;;;;;;;4.97;4.47;;;23.90;99.90;;;;;;5021724;28;20452;-71
2021/07/27 11:20:15;;;;;;;4.90;4.13;;;24.00;99.90;;;;;;5023105;28;20464;-72
2021/07/27 11:22:44;;;;;;;5.47;4.97;;;24.10;99.90;;;;;;5023717;28;20476;-71
2021/07/27 11:25:11;;;;;;;5.17;4.70;;;24.10;99.90;;;;;;5021514;28;21478;-71
2021/07/27 11:27:38;;;;;;;5.07;4.63;;;24.10;99.90;;;;;;5022488;28;20460;-71
2021/07/27 11:30:09;;;;;;;5.53;4.90;;;24.10;99.90;;;;;;5022573;28;20464;-71
2021/07/27 11:32:43;;;;;;;4.90;4.50;;;24.10;99.90;;;;;;5025037;28;20460;-71
2021/07/27 11:35:12;;;;;;;4.40;4.00;;;24.20;99.90;;;;;;5025816;28;20491;-71
2021/07/27 11:37:39;;;;;;;4.50;4.10;;;24.10;99.90;;;;;;5025014;28;20519;-71
2021/07/27 11:40:07;;;;;;;4.23;3.83;;;24.10;99.90;;;;;;5026224;28;20497;-71
2021/07/27 11:42:34;;;;;;;3.80;3.40;;;24.00;99.90;;;;;;5026151;28;20469;-71
2021/07/27 11:45:04;;;;;;;4.30;3.90;;;24.00;99.90;;;;;;5025673;28;20487;-71
2021/07/27 11:47:43;;;;;;;4.53;4.00;;;23.90;99.90;;;;;;5025506;28;21297;-71
2021/07/27 11:50:13;;;;;;;4.80;3.80;;;23.80;99.90;;;;;;5025406;28;20495;-71
2021/07/27 11:52:41;;;;;;;4.30;3.93;;;23.70;99.90;;;;;;5025926;28;20516;-71
2021/07/27 11:55:08;;;;;;;4.43;4.03;;;23.60;99.90;;;;;;5025018;28;20492;-71
2021/07/27 11:57:35;;;;;;;5.90;4.13;;;23.60;99.90;;;;;;5025353;28;20882;-71
2021/07/27 12:00:10;;;;;;;5.40;4.17;;;23.50;99.90;;;;;;5025295;28;20467;-71
2021/07/27 12:02:37;;;;;;;4.27;3.87;;;23.40;99.90;;;;;;5025307;28;20459;-71
2021/07/27 12:05:06;;;;;;;6.23;3.93;;;23.40;99.90;;;;;;5024939;28;20483;-71
2021/07/27 12:07:32;;;;;;;4.17;3.77;;;23.30;99.90;;;;;;5025682;28;21049;-71
2021/07/27 12:09:59;;;;;;;4.50;4.00;;;23.30;99.90;;;;;;5024445;28;20468;-71
2021/07/27 12:12:27;;;;;;;5.03;4.50;;;23.30;99.90;;;;;;5025345;28;20472;-71
2021/07/27 12:14:55;;;;;;;4.40;4.10;;;23.30;99.90;;;;;;5026213;28;20499;-71
2021/07/27 12:17:22;;;;;;;4.87;4.07;;;23.30;99.90;;;;;;5024976;28;20484;-71
2021/07/27 12:19:49;;;;;;;4.30;3.90;;;23.30;99.90;;;;;;5025362;28;20460;-71
2021/07/27 12:22:19;;;;;;;5.43;4.17;;;23.30;99.90;;;;;;5026383;28;20477;-72
2021/07/27 12:24:46;;;;;;;4.87;4.23;;;23.30;99.90;;;;;;5025434;28;21102;-71
2021/07/27 12:27:14;;;;;;;4.77;4.27;;;23.30;99.90;;;;;;5026020;28;20464;-71
2021/07/27 12:29:41;;;;;;;4.30;3.87;;;23.40;99.90;;;;;;5025855;28;20477;-72
2021/07/27 12:32:09;;;;;;;6.30;4.37;;;23.50;99.90;;;;;;5025607;28;20980;-71
2021/07/27 12:34:36;;;;;;;4.23;3.90;;;23.50;99.90;;;;;;5022741;28;20924;-71
2021/07/27 12:37:05;;;;;;;4.13;3.63;;;23.60;99.90;;;;;;5018641;28;20496;-71
2021/07/27 12:39:34;;;;;;;3.90;3.50;;;23.70;99.90;;;;;;5020865;28;20549;-71
2021/07/27 12:42:01;;;;;;;4.20;3.80;;;23.80;99.90;;;;;;5025473;28;20470;-71
2021/07/27 12:44:29;;;;;;;5.47;4.60;;;23.90;99.90;;;;;;5025145;28;20558;-71
2021/07/27 12:46:58;;;;;;;4.73;4.00;;;24.00;99.90;;;;;;5024202;28;20479;-71
2021/07/27 12:49:25;;;;;;;4.03;3.73;;;24.10;99.90;;;;;;5023943;28;21292;-72
2021/07/27 12:51:52;;;;;;;3.90;3.60;;;24.20;99.90;;;;;;5023792;28;20460;-71
2021/07/27 12:54:21;;;;;;;4.40;4.00;;;24.20;99.90;;;;;;5023792;28;20483;-70
2021/07/27 12:56:50;;;;;;;4.90;4.50;;;24.30;99.90;;;;;;5024286;28;20480;-71
2021/07/27 12:59:17;;;;;;;4.07;3.77;;;24.40;99.90;;;;;;5023037;28;20472;-72
2021/07/27 13:01:43;;;;;;;4.70;3.93;;;24.40;99.90;;;;;;5022959;28;20456;-71
2021/07/27 13:04:11;;;;;;;4.67;4.10;;;24.50;99.90;;;;;;5022341;28;20467;-72
2021/07/27 13:06:37;;;;;;;5.97;4.20;;;24.50;99.90;;;;;;5024007;28;20471;-71
2021/07/27 13:09:04;;;;;;;3.80;3.50;;;24.60;99.90;;;;;;5024040;28;20460;-71